ESST/TYF METAR and TAF weather

Enter ICAO airport designator
Station Type Date Time Source
ESST METAR 2018/10/21 04:20 UTC NOAA

ESST 210420Z AUTO 15005KT 9999 SCT004/// OVC110/// 05/05 Q1017


Station Type Date Time Source
ESST Decoded METAR 2018/10/21 04:20 UTC NOAA

Station name not available
Oct 21, 2018 - 12:20 AM EDT / 2018.10.21 0420 UTC
Wind: from the SSE (150 degrees) at 6 MPH (5 KT):0
Visibility: greater than 7 mile(s):0
Sky conditions: overcast
Temperature: 41 F (5 C)
Dew Point: 41 F (5 C)
Relative Humidity: 100%
Pressure (altimeter): 30.03 in. Hg (1017 hPa)
ob: ESST 210420Z AUTO 15005KT 9999 SCT004/// OVC110/// 05/05 Q1017
cycle: 4

Station Type Date Time Source
ESST TAF UTC NOAA

Error!


Example: see airport list